»·PEaware :: WAT202 KSNA-KLAS

WAT202 :: KSNA-KLAS

FLIGHT INFORMATION

Flight Status: Arrived
Operator:
Walker Air Transport
More flights by this operator :: More flights under this callsign
Pilot: Nick L. (7253)
Aircraft: AIRBUS A319
(A319)
More flights by this aircraft type
Origin: KSNA John Wayne-Orange Co
United States
Destination: KLAS Harry Reid Intl
United States
More flights between these airports :: More routes between these airports
Route: FINZZ2 MISEN KEPEC6
File this flight plan on PilotEdge
Remarks:
Altitude:
(Current/Filed)
31,000ft
Speed:
(Current/Filed)
459kts
Departed: 11-Jun-20 07:21 AM
Arrived: 11-Jun-20 08:07 AM
Distance/Time
Traveled:
197nm/0:46
Distance/Time
To Go:
Arrived

Flight Plot

Page will automatically refresh every two minutes.

Flight plan parsing failed; only flown route is shown


Map Options




Map Legend


Flown Route
Filed Route
Departure Airport
Arrival Airport
Navaid (VOR, NDB)
Fix

Horizontal Profiles

Position Reports

Time Latitude Longitude Heading Altitude Ground
Speed
11-Jun-20 07:02 33.678687 -117.862797 97 65ft 0kts
11-Jun-20 07:03 33.678687 -117.862797 97 65ft 0kts
11-Jun-20 07:04 33.678687 -117.862797 97 65ft 0kts
11-Jun-20 07:05 33.678687 -117.862797 97 65ft 0kts
11-Jun-20 07:06 33.678687 -117.862797 97 65ft 0kts
11-Jun-20 07:07 33.678687 -117.862797 97 65ft 0kts
11-Jun-20 07:08 33.678687 -117.862797 97 65ft 0kts
11-Jun-20 07:09 33.678667 -117.863236 72 65ft 2kts
11-Jun-20 07:11 33.678347 -117.863784 34 65ft 2kts
11-Jun-20 07:12 33.678226 -117.863871 27 65ft 0kts
11-Jun-20 07:13 33.678227 -117.863870 27 65ft 0kts
11-Jun-20 07:14 33.678227 -117.863870 27 65ft 0kts
11-Jun-20 07:15 33.678227 -117.863870 27 65ft 0kts
11-Jun-20 07:16 33.678286 -117.863834 27 65ft 2kts
11-Jun-20 07:17 33.680410 -117.862736 338 65ft 9kts
11-Jun-20 07:18 33.681116 -117.864130 298 65ft 5kts
11-Jun-20 07:19 33.681241 -117.865331 204 65ft 7kts
11-Jun-20 07:20 33.680672 -117.865681 208 65ft 31kts
11-Jun-20 07:21 33.648328 -117.886645 203 1691ft 163kts
11-Jun-20 07:22 33.596295 -117.895970 184 4128ft 223kts
11-Jun-20 07:23 33.536943 -117.937602 222 7006ft 283kts
11-Jun-20 07:24 33.497909 -118.015317 283 8045ft 302kts
11-Jun-20 07:25 33.552521 -118.094430 313 11216ft 331kts
11-Jun-20 07:26 33.641447 -118.100790 27 14134ft 359kts
11-Jun-20 07:26 33.717233 -118.055144 26 16536ft 373kts
11-Jun-20 07:28 33.829244 -117.989567 26 19564ft 391kts
11-Jun-20 07:28 33.910872 -117.938518 32 21494ft 403kts
11-Jun-20 07:30 34.022627 -117.838098 37 22718ft 452kts
11-Jun-20 07:30 34.104627 -117.753196 47 23463ft 482kts
11-Jun-20 07:32 34.207329 -117.602599 51 24988ft 501kts
11-Jun-20 07:32 34.279835 -117.494503 50 26631ft 497kts
11-Jun-20 07:34 34.380300 -117.344441 51 28759ft 491kts
11-Jun-20 07:34 34.451486 -117.237268 50 30078ft 488kts
11-Jun-20 07:35 34.536583 -117.109175 50 31120ft 486kts
11-Jun-20 07:36 34.622864 -116.983165 49 31129ft 487kts
11-Jun-20 07:37 34.709612 -116.856627 50 31102ft 489kts
11-Jun-20 07:38 34.796723 -116.728883 50 31088ft 490kts
11-Jun-20 07:39 34.890161 -116.609509 39 31017ft 490kts
11-Jun-20 07:40 34.996243 -116.506709 37 28458ft 485kts
11-Jun-20 07:41 35.100478 -116.403567 42 24502ft 487kts
11-Jun-20 07:42 35.196253 -116.286557 46 23963ft 463kts
11-Jun-20 07:43 35.280822 -116.179940 47 22188ft 431kts
11-Jun-20 07:44 35.359918 -116.080298 47 19446ft 385kts
11-Jun-20 07:45 35.434414 -115.986129 47 17171ft 381kts
11-Jun-20 07:46 35.506615 -115.894667 47 15393ft 360kts
11-Jun-20 07:47 35.575560 -115.807053 47 14170ft 352kts
11-Jun-20 07:48 35.642776 -115.721417 48 13276ft 345kts
11-Jun-20 07:49 35.705057 -115.641962 48 12891ft 296kts
11-Jun-20 07:50 35.764724 -115.576915 19 12881ft 290kts
11-Jun-20 07:51 35.845414 -115.570304 3 12884ft 291kts
11-Jun-20 07:52 35.926704 -115.565947 3 12905ft 293kts
11-Jun-20 07:53 35.987847 -115.514527 72 12474ft 288kts
11-Jun-20 07:54 36.015722 -115.422962 70 11177ft 283kts
11-Jun-20 07:55 36.028057 -115.332376 97 10670ft 263kts
11-Jun-20 07:56 36.022155 -115.255608 96 9606ft 256kts
11-Jun-20 07:57 36.015642 -115.163913 95 8563ft 242kts
11-Jun-20 07:58 36.010258 -115.084906 95 7966ft 221kts
11-Jun-20 07:59 36.005565 -115.006324 94 7949ft 232kts
11-Jun-20 08:00 36.015546 -114.928660 34 7454ft 239kts
11-Jun-20 08:01 36.072993 -114.893364 349 5797ft 230kts
11-Jun-20 08:02 36.081449 -114.954790 251 3810ft 221kts
11-Jun-20 08:03 36.073738 -115.020004 269 3432ft 163kts
11-Jun-20 08:04 36.073700 -115.071157 270 2746ft 139kts
11-Jun-20 08:05 36.073644 -115.118786 270 2202ft 137kts
11-Jun-20 08:06 36.074267 -115.149548 294 2123ft 19kts
11-Jun-20 08:07 36.077984 -115.152006 86 2122ft 15kts
11-Jun-20 08:08 36.079857 -115.147248 56 2103ft 8kts

Navigation Log

Ident Type
Flight plan parsing failed, navigation log unavailable